Time;durP1;ratioP1;P1;durP2;ratioP2;P2;SDS_P1;SDS_P2;PMS_P1;PMS_P2;Temp;Humidity;BMP_temperature;BMP_pressure;BME280_temperature;BME280_humidity;BME280_pressure;Samples;Min_cycle;Max_cycle;Signal;HPM_P1;HPM_P2
2022/07/30 00:01:06;;;;;;;1.10;0.80;;;18.80;99.90;;;;;;5012673;28;20304;-90
2022/07/30 00:03:32;;;;;;;0.95;0.82;;;18.80;99.90;;;;;;5012601;28;20553;-90
2022/07/30 00:05:58;;;;;;;0.55;0.55;;;18.80;99.90;;;;;;5013280;28;20177;-90
2022/07/30 00:08:23;;;;;;;0.55;0.55;;;18.80;99.90;;;;;;5014157;28;20188;-90
2022/07/30 00:10:50;;;;;;;0.65;0.52;;;18.70;99.90;;;;;;5013299;28;20221;-90
2022/07/30 00:13:17;;;;;;;0.70;0.70;;;18.80;99.90;;;;;;5014027;28;20213;-90
2022/07/30 00:15:43;;;;;;;1.15;0.70;;;18.80;99.90;;;;;;5028932;28;20720;-90
2022/07/30 00:18:08;;;;;;;0.80;0.80;;;18.70;99.90;;;;;;5012666;28;20182;-89
2022/07/30 00:20:34;;;;;;;1.08;0.98;;;18.70;99.90;;;;;;5013534;28;20244;-90
2022/07/30 00:23:04;;;;;;;1.92;0.70;;;18.70;99.90;;;;;;5012732;28;20181;-91
2022/07/30 00:25:30;;;;;;;0.82;0.70;;;18.70;99.90;;;;;;5013873;28;20236;-89
2022/07/30 00:27:56;;;;;;;1.23;1.00;;;18.70;99.90;;;;;;5013847;28;20185;-89
2022/07/30 00:30:22;;;;;;;5.93;0.70;;;18.70;99.90;;;;;;5012130;28;20200;-90
2022/07/30 00:32:47;;;;;;;0.88;0.88;;;18.70;99.90;;;;;;5016204;28;20208;-89
2022/07/30 00:35:13;;;;;;;0.98;0.80;;;18.60;99.90;;;;;;5036666;28;20653;-90
2022/07/30 00:37:39;;;;;;;0.70;0.70;;;18.60;99.90;;;;;;5019386;28;20188;-89
2022/07/30 00:40:07;;;;;;;1.00;0.90;;;18.60;99.90;;;;;;5036372;28;20581;-90
2022/07/30 00:42:42;;;;;;;2.28;0.77;;;18.50;99.90;;;;;;5035723;28;20197;-89
2022/07/30 00:45:09;;;;;;;2.00;0.90;;;18.50;99.90;;;;;;5036063;28;20179;-90
2022/07/30 00:47:35;;;;;;;1.17;0.60;;;18.50;99.90;;;;;;5037028;28;20177;-91
2022/07/30 00:50:03;;;;;;;1.02;0.80;;;18.50;99.90;;;;;;5036087;28;20326;-91
2022/07/30 00:52:31;;;;;;;1.15;1.05;;;18.50;99.90;;;;;;5037111;28;20175;-91
2022/07/30 00:54:57;;;;;;;0.70;0.68;;;18.50;99.90;;;;;;5019370;28;20537;-90
2022/07/30 00:57:22;;;;;;;0.70;0.70;;;18.40;99.90;;;;;;5019470;28;20185;-89
2022/07/30 00:59:48;;;;;;;1.45;0.95;;;18.40;99.90;;;;;;5035822;28;20211;-89
2022/07/30 01:02:14;;;;;;;0.80;0.80;;;18.40;99.90;;;;;;5037003;28;20195;-90
2022/07/30 01:04:39;;;;;;;0.80;0.57;;;18.30;99.90;;;;;;5035545;28;20634;-89
2022/07/30 01:07:05;;;;;;;0.70;0.60;;;18.30;99.90;;;;;;5036942;28;20219;-90
2022/07/30 01:09:30;;;;;;;0.70;0.70;;;18.30;99.90;;;;;;5018996;28;20596;-90
2022/07/30 01:11:57;;;;;;;1.02;0.70;;;18.30;99.90;;;;;;5019213;28;20192;-90
2022/07/30 01:14:23;;;;;;;0.75;0.70;;;18.30;99.90;;;;;;5036694;28;20630;-90
2022/07/30 01:16:49;;;;;;;0.77;0.77;;;18.30;99.90;;;;;;5018885;28;20177;-89
2022/07/30 01:22:38;;;;;;;1.17;0.68;;;18.20;99.90;;;;;;5036509;28;20287;-89
2022/07/30 01:25:16;;;;;;;1.13;0.90;;;18.20;99.90;;;;;;4992377;28;20554;-90
2022/07/30 01:27:49;;;;;;;3.30;0.70;;;18.20;99.90;;;;;;5036062;28;20180;-89
2022/07/30 01:30:18;;;;;;;0.60;0.60;;;18.20;99.90;;;;;;5036415;28;20238;-89
2022/07/30 01:32:45;;;;;;;0.98;0.88;;;18.20;99.90;;;;;;5036026;28;20173;-90
2022/07/30 01:35:13;;;;;;;0.80;0.80;;;18.20;99.90;;;;;;5038285;28;20168;-89
2022/07/30 01:37:40;;;;;;;1.20;0.80;;;18.20;99.90;;;;;;5046203;28;20181;-89
2022/07/30 01:40:06;;;;;;;0.80;0.70;;;18.20;99.90;;;;;;5045936;28;20683;-89
2022/07/30 01:42:33;;;;;;;0.75;0.75;;;18.30;99.90;;;;;;5044203;28;20188;-90
2022/07/30 01:45:00;;;;;;;1.33;0.90;;;18.20;99.90;;;;;;5020231;28;20181;-90
2022/07/30 01:47:28;;;;;;;0.80;0.80;;;18.20;99.90;;;;;;5002616;28;20540;-91
2022/07/30 01:49:56;;;;;;;1.08;0.95;;;18.20;99.90;;;;;;5036338;28;20307;-91
2022/07/30 01:52:23;;;;;;;1.00;0.90;;;18.20;99.90;;;;;;5034972;28;20566;-90
2022/07/30 01:54:50;;;;;;;0.95;0.85;;;18.20;99.90;;;;;;5035859;28;20172;-91
2022/07/30 01:57:19;;;;;;;0.75;0.75;;;18.20;99.90;;;;;;5036381;28;20187;-89
2022/07/30 01:59:49;;;;;;;0.73;0.70;;;18.20;99.90;;;;;;5035576;28;20275;-89
2022/07/30 02:02:14;;;;;;;1.02;0.90;;;18.10;99.90;;;;;;5034942;28;20243;-89
2022/07/30 02:04:40;;;;;;;1.15;1.02;;;18.10;99.90;;;;;;5035586;28;20181;-88
2022/07/30 02:07:20;;;;;;;0.80;0.60;;;18.10;99.90;;;;;;5035917;28;20180;-89
2022/07/30 02:10:06;;;;;;;0.90;0.90;;;18.10;99.90;;;;;;5035624;28;20640;-89
2022/07/30 02:12:35;;;;;;;0.85;0.82;;;18.00;99.90;;;;;;5035334;28;20528;-88
2022/07/30 02:15:13;;;;;;;1.52;0.85;;;18.00;99.90;;;;;;5035774;28;20174;-90
2022/07/30 02:18:00;;;;;;;0.88;0.80;;;18.00;99.90;;;;;;5034354;28;20184;-89
2022/07/30 02:20:29;;;;;;;1.63;1.02;;;18.00;99.90;;;;;;5035600;28;20192;-91
2022/07/30 02:22:59;;;;;;;1.42;0.80;;;17.90;99.90;;;;;;5035323;28;20184;-90
2022/07/30 02:25:26;;;;;;;0.77;0.77;;;17.90;99.90;;;;;;5034396;28;20172;-89
2022/07/30 02:27:55;;;;;;;1.08;0.80;;;17.90;99.90;;;;;;5017636;28;20188;-90
2022/07/30 02:30:25;;;;;;;0.90;0.90;;;17.90;99.90;;;;;;5035629;28;20181;-90
2022/07/30 02:32:54;;;;;;;1.90;1.08;;;17.90;99.90;;;;;;5033460;28;20185;-89
2022/07/30 02:35:23;;;;;;;0.75;0.75;;;17.90;99.90;;;;;;5035577;28;20172;-89
2022/07/30 02:37:52;;;;;;;1.20;0.82;;;17.90;99.90;;;;;;5017440;28;20233;-89
2022/07/30 02:40:20;;;;;;;0.90;0.90;;;17.90;99.90;;;;;;5034014;28;20359;-89
2022/07/30 02:42:50;;;;;;;4.15;1.17;;;17.80;99.90;;;;;;5017402;28;20642;-89
2022/07/30 02:45:16;;;;;;;1.40;1.20;;;17.90;99.90;;;;;;5033745;28;20263;-90
2022/07/30 02:47:44;;;;;;;0.77;0.77;;;17.80;99.90;;;;;;5035183;28;20192;-90
2022/07/30 02:50:10;;;;;;;1.48;0.85;;;17.90;99.90;;;;;;5035094;28;20211;-90
2022/07/30 02:52:39;;;;;;;1.88;1.00;;;17.80;99.90;;;;;;5000627;28;20243;-88
2022/07/30 02:55:07;;;;;;;5.40;1.60;;;17.80;99.90;;;;;;5033449;28;20168;-89
2022/07/30 02:57:33;;;;;;;0.63;0.63;;;17.80;99.90;;;;;;5017157;28;20278;-90
2022/07/30 03:00:00;;;;;;;1.38;0.90;;;17.80;99.90;;;;;;5034635;28;20282;-89
2022/07/30 03:02:26;;;;;;;1.08;0.98;;;17.80;99.90;;;;;;5034632;28;20208;-90
2022/07/30 03:04:53;;;;;;;1.00;1.00;;;17.70;99.90;;;;;;5034662;28;20201;-90
2022/07/30 03:07:19;;;;;;;0.98;0.95;;;17.70;99.90;;;;;;5035044;28;20618;-90
2022/07/30 03:09:46;;;;;;;2.38;1.17;;;17.80;99.90;;;;;;5016778;28;20669;-91
2022/07/30 03:12:14;;;;;;;1.15;0.82;;;17.80;99.90;;;;;;5034582;28;20203;-89
2022/07/30 03:14:40;;;;;;;1.17;1.08;;;17.80;99.90;;;;;;5034303;28;20661;-88
2022/07/30 03:17:07;;;;;;;1.23;1.08;;;17.80;99.90;;;;;;5017068;28;20180;-89
2022/07/30 03:19:37;;;;;;;3.92;1.77;;;17.80;99.90;;;;;;5004282;28;20180;-89
2022/07/30 03:22:06;;;;;;;1.17;0.75;;;17.80;99.90;;;;;;5036658;28;20173;-88
2022/07/30 03:24:35;;;;;;;1.67;1.20;;;17.80;99.90;;;;;;5034975;28;20226;-89
2022/07/30 03:27:02;;;;;;;1.98;1.10;;;17.80;99.90;;;;;;5033778;28;20558;-89
2022/07/30 03:29:29;;;;;;;1.45;1.05;;;17.80;99.90;;;;;;5034636;28;20184;-88
2022/07/30 03:31:55;;;;;;;0.90;0.90;;;17.80;99.90;;;;;;5036565;28;20255;-89
2022/07/30 03:34:22;;;;;;;1.30;1.05;;;17.80;99.90;;;;;;5034471;28;20231;-90
2022/07/30 03:36:48;;;;;;;2.03;1.10;;;17.80;99.90;;;;;;5017077;28;20176;-88
2022/07/30 03:39:15;;;;;;;1.63;1.30;;;17.80;99.90;;;;;;5017114;28;20634;-90
2022/07/30 03:41:41;;;;;;;0.82;0.70;;;17.80;99.90;;;;;;5034045;28;20283;-89
2022/07/30 03:44:07;;;;;;;1.20;1.08;;;17.90;99.90;;;;;;5016413;28;20609;-90
2022/07/30 03:46:35;;;;;;;1.67;1.30;;;17.80;99.90;;;;;;5000250;28;20185;-89
2022/07/30 03:49:02;;;;;;;0.93;0.90;;;17.80;99.90;;;;;;5033599;28;20603;-89
2022/07/30 03:51:27;;;;;;;1.33;1.08;;;17.80;99.90;;;;;;5034002;28;20634;-89
2022/07/30 03:53:54;;;;;;;1.10;1.00;;;17.80;99.90;;;;;;5032558;28;20246;-90
2022/07/30 03:56:20;;;;;;;1.10;1.00;;;17.80;99.90;;;;;;5016499;28;20169;-90
2022/07/30 03:58:46;;;;;;;3.78;1.52;;;17.80;99.90;;;;;;5033603;28;20177;-89
2022/07/30 04:01:12;;;;;;;1.20;1.00;;;17.80;99.90;;;;;;5016244;28;20204;-89
2022/07/30 04:03:37;;;;;;;1.10;1.00;;;17.80;99.90;;;;;;5016719;28;20181;-90
2022/07/30 04:06:03;;;;;;;0.90;0.82;;;17.80;99.90;;;;;;5015887;28;20206;-89
2022/07/30 04:08:29;;;;;;;1.15;1.05;;;17.80;99.90;;;;;;5032086;28;20280;-89
2022/07/30 04:10:55;;;;;;;1.33;1.15;;;17.80;99.90;;;;;;5015818;28;20180;-90
2022/07/30 04:13:20;;;;;;;1.30;1.00;;;17.80;99.90;;;;;;5033915;28;20259;-89
2022/07/30 04:16:04;;;;;;;1.88;1.05;;;17.80;99.90;;;;;;5015686;28;20184;-89
2022/07/30 04:18:39;;;;;;;1.38;1.02;;;17.80;99.90;;;;;;5032144;28;20182;-89
2022/07/30 04:21:07;;;;;;;1.30;1.20;;;17.80;99.90;;;;;;5033369;28;20199;-90
2022/07/30 04:23:33;;;;;;;2.40;1.23;;;17.80;99.90;;;;;;5016159;28;20181;-90
2022/07/30 04:26:00;;;;;;;1.70;1.40;;;17.80;99.90;;;;;;5033748;28;20199;-90
2022/07/30 04:28:27;;;;;;;0.90;0.90;;;17.80;99.90;;;;;;5033631;28;20172;-90
2022/07/30 04:30:53;;;;;;;1.30;1.20;;;17.80;99.90;;;;;;5015732;28;20189;-90
2022/07/30 04:33:19;;;;;;;1.35;1.25;;;17.80;99.90;;;;;;5032510;28;20256;-89
2022/07/30 04:35:44;;;;;;;3.42;1.23;;;17.80;99.90;;;;;;5033910;28;20211;-90
2022/07/30 04:38:12;;;;;;;1.42;1.33;;;17.80;99.90;;;;;;5033757;28;20221;-89
2022/07/30 04:40:38;;;;;;;2.88;1.20;;;17.80;99.90;;;;;;5032524;28;20239;-89
2022/07/30 04:43:04;;;;;;;2.78;1.48;;;17.80;99.90;;;;;;5032974;28;20219;-89
2022/07/30 04:45:29;;;;;;;2.92;1.23;;;17.90;99.90;;;;;;5015875;28;20181;-89
2022/07/30 04:47:55;;;;;;;1.27;1.10;;;17.90;99.90;;;;;;5033008;28;20181;-90
2022/07/30 04:50:23;;;;;;;1.42;1.10;;;17.90;99.90;;;;;;5033357;28;20188;-91
2022/07/30 04:52:50;;;;;;;3.40;1.15;;;17.90;99.90;;;;;;5032243;28;20275;-87
2022/07/30 04:55:19;;;;;;;1.48;1.10;;;17.90;99.90;;;;;;5033486;28;20180;-87
2022/07/30 04:57:47;;;;;;;1.42;1.15;;;18.00;99.90;;;;;;5033460;28;20266;-88
2022/07/30 05:00:13;;;;;;;1.50;1.30;;;18.00;99.90;;;;;;5033023;28;20254;-88
2022/07/30 05:02:40;;;;;;;1.85;1.10;;;18.00;99.90;;;;;;5029771;28;20189;-88
2022/07/30 05:05:07;;;;;;;1.83;1.20;;;18.00;99.90;;;;;;5046476;28;20180;-87
2022/07/30 05:07:34;;;;;;;1.58;1.35;;;18.00;99.90;;;;;;5034345;28;20372;-89
2022/07/30 05:09:59;;;;;;;3.55;1.50;;;18.00;99.90;;;;;;5039447;28;20184;-87
2022/07/30 05:12:32;;;;;;;1.13;1.02;;;18.10;99.90;;;;;;5033629;28;20184;-88
2022/07/30 05:14:58;;;;;;;1.42;1.33;;;18.10;99.90;;;;;;5032981;28;20192;-88
2022/07/30 05:17:24;;;;;;;1.27;1.10;;;18.10;99.90;;;;;;5033162;28;20622;-88
2022/07/30 05:19:49;;;;;;;1.73;1.33;;;18.20;99.90;;;;;;5016792;28;20188;-86
2022/07/30 05:22:15;;;;;;;2.38;1.42;;;18.20;99.90;;;;;;5035100;28;20184;-86
2022/07/30 05:24:40;;;;;;;1.30;1.20;;;18.20;99.90;;;;;;5018639;28;20196;-88
2022/07/30 05:27:06;;;;;;;1.40;1.30;;;18.20;99.90;;;;;;5036371;28;20267;-92
2022/07/30 05:29:31;;;;;;;1.48;1.00;;;18.20;99.90;;;;;;5017662;28;20185;-90
2022/07/30 05:31:57;;;;;;;1.60;1.45;;;18.20;99.90;;;;;;5017080;28;20240;-88
2022/07/30 05:34:23;;;;;;;2.05;1.50;;;18.20;99.90;;;;;;5017017;28;20576;-89
2022/07/30 05:36:49;;;;;;;1.58;1.48;;;18.20;99.90;;;;;;5017377;28;20184;-89
2022/07/30 05:39:16;;;;;;;1.48;1.30;;;18.30;99.90;;;;;;5034855;28;20189;-92
2022/07/30 05:41:41;;;;;;;4.35;1.80;;;18.30;99.90;;;;;;5017151;28;20688;-88
2022/07/30 05:44:07;;;;;;;3.75;1.85;;;18.30;99.90;;;;;;5016460;28;20192;-89
2022/07/30 05:46:32;;;;;;;1.83;1.40;;;18.30;99.90;;;;;;5034818;28;20200;-89
2022/07/30 05:48:58;;;;;;;1.80;1.45;;;18.40;99.90;;;;;;5016607;28;20180;-88
2022/07/30 05:51:24;;;;;;;1.83;1.52;;;18.40;99.90;;;;;;5034544;28;20181;-89
2022/07/30 05:53:50;;;;;;;4.90;1.35;;;18.40;99.90;;;;;;5034352;28;20188;-89
2022/07/30 05:56:16;;;;;;;3.30;1.38;;;18.40;99.90;;;;;;5017081;28;20208;-88
2022/07/30 05:58:42;;;;;;;1.85;1.42;;;18.50;99.90;;;;;;5034526;28;20235;-94
2022/07/30 06:01:08;;;;;;;1.70;1.60;;;18.50;99.90;;;;;;5033780;28;20199;-87
2022/07/30 06:03:33;;;;;;;1.63;1.30;;;18.60;99.90;;;;;;5016111;28;20195;-88
2022/07/30 06:06:01;;;;;;;3.60;1.90;;;18.60;99.90;;;;;;5034045;28;20191;-88
2022/07/30 06:08:26;;;;;;;1.40;1.30;;;18.60;99.90;;;;;;5032161;28;20195;-88
2022/07/30 06:10:52;;;;;;;2.17;1.52;;;18.70;99.90;;;;;;5016530;28;20424;-88
2022/07/30 06:13:18;;;;;;;1.35;1.10;;;18.80;99.90;;;;;;5016407;28;20226;-91
2022/07/30 06:15:43;;;;;;;2.30;1.50;;;18.80;99.90;;;;;;5015282;28;20177;-89
2022/07/30 06:18:09;;;;;;;2.67;1.58;;;18.90;99.90;;;;;;5033539;28;20212;-90
2022/07/30 06:20:35;;;;;;;2.13;1.92;;;18.90;99.90;;;;;;5034472;28;20688;-90
2022/07/30 06:23:00;;;;;;;3.33;1.92;;;19.00;99.90;;;;;;5033817;28;20193;-90
2022/07/30 06:25:26;;;;;;;2.25;1.50;;;19.00;99.90;;;;;;5000010;28;20234;-90
2022/07/30 06:27:51;;;;;;;2.13;1.17;;;19.10;99.90;;;;;;4997832;28;20181;-91
2022/07/30 06:30:17;;;;;;;2.08;1.70;;;19.00;99.90;;;;;;5033134;28;21046;-91
2022/07/30 06:32:44;;;;;;;1.88;1.42;;;19.20;99.90;;;;;;5031180;28;20216;-89
2022/07/30 06:35:10;;;;;;;3.00;1.67;;;19.20;99.90;;;;;;5013667;28;20642;-89
2022/07/30 06:37:35;;;;;;;2.25;1.63;;;19.20;99.90;;;;;;5015873;28;20265;-91
2022/07/30 06:40:01;;;;;;;2.08;1.73;;;19.20;99.90;;;;;;5014918;28;20211;-89
2022/07/30 06:42:27;;;;;;;2.60;1.42;;;19.30;99.90;;;;;;5033415;28;20208;-89
2022/07/30 06:44:53;;;;;;;1.90;1.77;;;19.40;99.90;;;;;;5033170;28;20234;-90
2022/07/30 06:47:24;;;;;;;4.20;1.77;;;19.50;99.90;;;;;;5033288;28;20200;-89
2022/07/30 06:49:50;;;;;;;2.20;1.80;;;19.50;99.90;;;;;;5017252;28;20238;-89
2022/07/30 06:52:16;;;;;;;2.22;1.48;;;19.60;99.90;;;;;;4999852;28;20596;-88
2022/07/30 06:54:41;;;;;;;1.85;1.60;;;19.60;99.90;;;;;;5016583;28;20177;-88
2022/07/30 06:57:07;;;;;;;3.42;1.90;;;19.70;99.90;;;;;;5016224;28;20172;-87
2022/07/30 06:59:33;;;;;;;1.88;1.77;;;19.70;99.90;;;;;;5015450;28;20272;-89
2022/07/30 07:01:58;;;;;;;2.35;1.70;;;19.70;99.90;;;;;;5016237;28;20208;-88
2022/07/30 07:04:24;;;;;;;4.40;1.95;;;19.80;99.90;;;;;;5003031;28;20307;-87
2022/07/30 07:06:49;;;;;;;2.33;1.83;;;19.80;99.90;;;;;;5040033;28;20195;-89
2022/07/30 07:09:15;;;;;;;3.05;2.08;;;19.90;99.90;;;;;;5035976;28;20263;-90
2022/07/30 07:11:40;;;;;;;2.63;2.15;;;19.90;99.90;;;;;;5001393;28;20271;-89
2022/07/30 07:14:06;;;;;;;2.25;2.08;;;20.00;99.90;;;;;;5021326;28;20183;-89
2022/07/30 07:16:32;;;;;;;2.72;1.95;;;20.00;99.90;;;;;;5018140;28;20180;-88
2022/07/30 07:18:57;;;;;;;2.97;1.85;;;20.10;99.90;;;;;;5016258;28;20173;-89
2022/07/30 07:21:23;;;;;;;1.70;1.60;;;20.10;99.90;;;;;;5033304;28;20247;-89
2022/07/30 07:23:48;;;;;;;2.55;1.92;;;20.20;99.90;;;;;;4999752;28;20187;-88
2022/07/30 07:26:14;;;;;;;4.07;2.35;;;20.30;99.90;;;;;;5033628;28;20230;-88
2022/07/30 07:28:40;;;;;;;3.80;1.80;;;20.50;99.90;;;;;;5016678;28;20211;-91
2022/07/30 07:31:07;;;;;;;3.55;2.42;;;20.50;99.90;;;;;;5034093;28;20189;-88
2022/07/30 07:33:32;;;;;;;3.20;2.38;;;20.70;99.90;;;;;;4999993;28;20239;-89
2022/07/30 07:35:58;;;;;;;2.00;1.60;;;20.90;99.90;;;;;;5034047;28;20173;-89
2022/07/30 07:38:24;;;;;;;3.38;1.98;;;21.00;99.90;;;;;;5015938;28;21036;-89
2022/07/30 07:40:49;;;;;;;4.97;2.45;;;21.20;99.90;;;;;;5034010;28;20196;-87
2022/07/30 07:43:15;;;;;;;2.97;2.22;;;21.30;99.90;;;;;;5032133;28;20196;-88
2022/07/30 07:45:42;;;;;;;2.75;1.88;;;21.40;99.90;;;;;;5016403;28;20618;-86
2022/07/30 07:48:07;;;;;;;2.47;1.88;;;21.50;99.90;;;;;;5033720;28;20179;-86
2022/07/30 07:50:33;;;;;;;3.28;2.53;;;21.50;99.90;;;;;;5016526;28;20271;-88
2022/07/30 07:52:59;;;;;;;4.18;1.77;;;21.70;99.90;;;;;;5000101;28;20231;-91
2022/07/30 07:55:25;;;;;;;3.25;2.20;;;21.70;99.90;;;;;;5033852;28;20251;-89
2022/07/30 07:57:51;;;;;;;2.97;2.05;;;21.70;99.90;;;;;;5033819;28;20332;-88
2022/07/30 08:00:17;;;;;;;4.45;2.47;;;21.70;99.90;;;;;;5032406;28;20283;-89
2022/07/30 08:02:43;;;;;;;3.83;1.85;;;21.70;99.90;;;;;;5033193;28;20279;-87
2022/07/30 08:05:11;;;;;;;2.38;1.98;;;21.60;99.90;;;;;;5033511;28;20268;-88
2022/07/30 08:07:37;;;;;;;1.90;1.70;;;21.60;99.90;;;;;;5033590;28;20200;-87
2022/07/30 08:10:04;;;;;;;2.47;1.60;;;21.50;99.90;;;;;;5015888;28;20188;-87
2022/07/30 08:12:30;;;;;;;3.22;2.17;;;21.50;99.90;;;;;;5015656;28;20184;-88
2022/07/30 08:14:55;;;;;;;2.75;2.00;;;21.60;99.90;;;;;;5031708;28;20186;-86
2022/07/30 08:17:21;;;;;;;2.72;2.08;;;21.70;99.90;;;;;;4997952;28;20263;-87
2022/07/30 08:19:47;;;;;;;1.80;1.70;;;21.70;99.90;;;;;;5014177;28;20260;-88
2022/07/30 08:22:12;;;;;;;4.18;2.17;;;21.70;99.90;;;;;;5031787;28;20184;-86
2022/07/30 08:24:38;;;;;;;2.67;1.92;;;21.80;99.90;;;;;;5014465;28;20173;-88
2022/07/30 08:27:04;;;;;;;2.05;1.83;;;21.80;99.90;;;;;;5032022;28;20208;-88
2022/07/30 08:29:29;;;;;;;2.20;2.00;;;21.80;99.90;;;;;;5015689;28;20177;-87
2022/07/30 08:31:55;;;;;;;2.03;1.70;;;21.80;99.90;;;;;;5002548;28;20253;-89
2022/07/30 08:34:21;;;;;;;2.70;2.10;;;21.80;99.90;;;;;;5036313;28;20251;-88
2022/07/30 08:36:47;;;;;;;8.82;2.38;;;21.80;99.90;;;;;;5027869;28;20191;-89
2022/07/30 08:39:12;;;;;;;3.38;2.17;;;21.80;99.90;;;;;;5032893;28;20541;-87
2022/07/30 08:41:40;;;;;;;3.75;2.13;;;21.80;99.90;;;;;;5015256;28;20208;-88
2022/07/30 08:44:09;;;;;;;1.70;1.60;;;21.80;99.90;;;;;;5032764;28;20272;-88
2022/07/30 08:46:40;;;;;;;3.17;2.20;;;21.80;99.90;;;;;;5032857;28;20192;-87
2022/07/30 08:49:06;;;;;;;2.30;1.83;;;21.70;99.90;;;;;;5031640;28;20645;-86
2022/07/30 08:51:33;;;;;;;4.25;2.67;;;21.70;99.90;;;;;;5032950;28;20199;-87
2022/07/30 08:54:00;;;;;;;2.70;2.17;;;21.70;99.90;;;;;;5015349;28;20177;-89
2022/07/30 08:56:26;;;;;;;3.00;1.98;;;21.70;99.90;;;;;;4986367;28;20180;-87
2022/07/30 08:58:52;;;;;;;2.65;1.95;;;21.70;99.90;;;;;;5036293;28;20185;-88
2022/07/30 09:01:18;;;;;;;2.35;2.15;;;21.70;99.90;;;;;;5036136;28;20210;-88
2022/07/30 09:03:43;;;;;;;1.92;1.70;;;21.70;99.90;;;;;;5018972;28;20238;-87
2022/07/30 09:06:09;;;;;;;2.00;1.80;;;21.70;99.90;;;;;;5034660;28;20176;-88
2022/07/30 09:08:35;;;;;;;5.10;2.35;;;21.80;99.90;;;;;;5018030;28;20207;-87
2022/07/30 09:11:00;;;;;;;3.03;2.17;;;21.80;99.90;;;;;;5036333;28;20179;-88
2022/07/30 09:13:28;;;;;;;2.10;1.80;;;21.80;99.90;;;;;;5018605;28;20203;-89
2022/07/30 09:15:54;;;;;;;3.30;2.33;;;21.70;99.90;;;;;;5018364;28;20545;-89
2022/07/30 09:18:31;;;;;;;3.13;2.47;;;21.70;99.90;;;;;;5018174;28;20210;-87
2022/07/30 09:21:12;;;;;;;2.38;2.15;;;21.70;99.90;;;;;;5036344;28;20282;-87
2022/07/30 09:23:38;;;;;;;4.43;2.25;;;21.70;99.90;;;;;;5035456;28;20165;-87
2022/07/30 09:26:03;;;;;;;2.60;2.10;;;21.70;99.90;;;;;;5002324;28;20176;-88
2022/07/30 09:28:32;;;;;;;2.90;2.22;;;21.70;99.90;;;;;;5001721;28;20622;-89
2022/07/30 09:30:58;;;;;;;3.47;2.33;;;21.70;99.90;;;;;;5036296;28;20254;-89
2022/07/30 09:33:50;;;;;;;2.22;2.03;;;21.70;99.90;;;;;;5035548;28;20987;-88
2022/07/30 09:36:17;;;;;;;3.90;2.67;;;21.60;99.90;;;;;;5032155;28;20197;-90
2022/07/30 09:38:46;;;;;;;4.93;2.30;;;21.50;99.90;;;;;;5018253;28;20196;-89
2022/07/30 09:41:13;;;;;;;3.42;2.45;;;21.50;99.90;;;;;;5035757;28;20211;-88
2022/07/30 09:43:57;;;;;;;2.53;2.33;;;21.40;99.90;;;;;;5035396;28;20271;-87
2022/07/30 09:46:45;;;;;;;4.40;2.95;;;21.30;99.90;;;;;;5035549;28;20168;-88
2022/07/30 09:49:20;;;;;;;6.82;3.67;;;21.30;99.90;;;;;;5034143;28;20176;-89
2022/07/30 09:51:46;;;;;;;4.93;3.33;;;21.30;99.90;;;;;;5017780;28;20676;-89
2022/07/30 09:54:12;;;;;;;3.30;2.55;;;21.20;99.90;;;;;;5035312;28;20177;-91
2022/07/30 09:56:38;;;;;;;3.47;2.45;;;21.20;99.90;;;;;;5035455;28;20177;-89
2022/07/30 09:59:05;;;;;;;2.72;2.45;;;21.20;99.90;;;;;;5035353;28;20691;-91
2022/07/30 10:01:51;;;;;;;3.47;2.55;;;21.20;99.90;;;;;;5034507;28;20206;-88
2022/07/30 10:04:23;;;;;;;3.95;2.85;;;21.20;99.90;;;;;;5035329;28;20645;-88
2022/07/30 10:06:49;;;;;;;5.85;2.75;;;21.20;99.90;;;;;;5032461;28;20184;-88
2022/07/30 10:09:26;;;;;;;3.47;2.50;;;21.20;99.90;;;;;;5017327;28;20188;-86
2022/07/30 10:11:54;;;;;;;4.10;2.83;;;21.20;99.90;;;;;;5035809;28;20541;-89
2022/07/30 10:14:21;;;;;;;3.63;2.63;;;21.20;99.90;;;;;;5034771;28;20173;-89
2022/07/30 10:16:49;;;;;;;3.60;2.50;;;21.20;99.90;;;;;;5033708;28;20189;-88
2022/07/30 10:19:16;;;;;;;2.67;2.35;;;21.20;99.90;;;;;;5032794;28;20275;-88
2022/07/30 10:21:43;;;;;;;2.30;2.10;;;21.20;99.90;;;;;;5033498;28;20274;-88
2022/07/30 10:24:09;;;;;;;3.97;2.55;;;21.30;99.90;;;;;;5033971;28;20267;-89
2022/07/30 10:26:35;;;;;;;9.13;2.90;;;21.30;99.90;;;;;;5034372;28;20180;-90
2022/07/30 10:29:01;;;;;;;2.80;2.45;;;21.30;99.90;;;;;;5036402;28;20184;-87
2022/07/30 10:31:27;;;;;;;3.65;2.75;;;21.30;99.90;;;;;;5033540;28;20614;-87
2022/07/30 10:33:52;;;;;;;3.00;2.53;;;21.40;99.90;;;;;;5017247;28;20584;-88
2022/07/30 10:36:19;;;;;;;2.40;2.15;;;21.40;99.90;;;;;;5034757;28;20530;-87
2022/07/30 10:38:46;;;;;;;4.35;2.40;;;21.50;99.90;;;;;;5016285;28;20688;-88
2022/07/30 10:41:32;;;;;;;4.18;2.70;;;21.60;99.90;;;;;;5016947;28;20200;-89
2022/07/30 10:44:19;;;;;;;3.13;2.25;;;21.60;99.90;;;;;;5037091;28;20168;-88
2022/07/30 10:47:04;;;;;;;2.30;2.10;;;21.70;99.90;;;;;;5034512;28;20180;-90
2022/07/30 10:49:30;;;;;;;2.47;2.08;;;21.80;99.90;;;;;;5033263;28;20707;-90
2022/07/30 10:51:55;;;;;;;2.45;1.95;;;21.80;99.90;;;;;;5017097;28;20180;-87
2022/07/30 10:54:33;;;;;;;3.70;2.20;;;21.80;99.90;;;;;;5036465;28;20176;-89
2022/07/30 10:57:10;;;;;;;4.38;2.17;;;21.90;99.90;;;;;;5037789;28;20184;-89
2022/07/30 10:59:51;;;;;;;3.42;2.38;;;21.90;99.90;;;;;;5035408;28;20168;-87
2022/07/30 11:02:18;;;;;;;2.53;2.15;;;22.00;99.90;;;;;;5034804;28;20237;-88
2022/07/30 11:04:44;;;;;;;3.15;1.90;;;22.00;99.90;;;;;;5033285;28;20654;-86
2022/07/30 11:07:26;;;;;;;5.07;2.30;;;22.00;99.90;;;;;;5034678;28;20177;-89
2022/07/30 11:10:00;;;;;;;4.65;2.30;;;22.10;99.90;;;;;;5032968;28;20279;-88
2022/07/30 11:12:52;;;;;;;3.67;2.42;;;22.10;99.90;;;;;;5032316;28;20168;-86
2022/07/30 11:15:18;;;;;;;3.20;2.63;;;22.20;99.90;;;;;;5033611;28;20164;-87
2022/07/30 11:18:09;;;;;;;3.17;2.47;;;22.20;99.90;;;;;;5032842;28;20188;-87
2022/07/30 11:20:35;;;;;;;4.53;2.30;;;22.30;99.90;;;;;;5033848;28;20266;-87
2022/07/30 11:23:27;;;;;;;7.28;2.55;;;22.40;99.90;;;;;;5034251;28;20626;-88
2022/07/30 11:25:52;;;;;;;7.30;2.95;;;22.40;99.90;;;;;;5029893;28;20272;-87
2022/07/30 11:28:43;;;;;;;4.72;2.58;;;22.50;99.90;;;;;;5017319;28;20686;-89
2022/07/30 11:31:30;;;;;;;3.13;2.33;;;22.60;99.90;;;;;;5034297;28;20165;-88
2022/07/30 11:34:17;;;;;;;3.92;2.55;;;22.70;99.90;;;;;;5016115;28;20589;-86
2022/07/30 11:37:05;;;;;;;3.13;2.53;;;22.70;99.90;;;;;;5044383;28;20176;-87
2022/07/30 11:39:52;;;;;;;3.47;2.72;;;22.80;99.90;;;;;;5051073;28;20177;-87
2022/07/30 11:42:25;;;;;;;4.70;2.83;;;22.80;99.90;;;;;;5049645;28;20199;-87
2022/07/30 11:44:51;;;;;;;6.00;3.50;;;22.90;99.90;;;;;;5019372;28;20212;-88
2022/07/30 11:47:17;;;;;;;4.93;2.90;;;22.90;99.90;;;;;;5033855;28;20223;-88
2022/07/30 11:49:45;;;;;;;5.50;3.33;;;22.90;99.90;;;;;;5034533;28;20169;-90
2022/07/30 11:52:11;;;;;;;3.17;2.58;;;22.90;99.90;;;;;;5035041;28;20184;-89
2022/07/30 11:54:55;;;;;;;4.50;3.25;;;22.80;99.90;;;;;;5016093;28;20244;-88
2022/07/30 11:57:41;;;;;;;2.72;2.38;;;22.80;99.90;;;;;;5000110;28;20659;-89
2022/07/30 12:00:07;;;;;;;4.38;3.17;;;22.80;99.90;;;;;;5015661;28;20173;-89
2022/07/30 12:02:32;;;;;;;4.50;3.20;;;22.90;99.90;;;;;;4998069;28;20192;-89
2022/07/30 12:04:58;;;;;;;2.60;2.30;;;22.90;99.90;;;;;;5031869;28;20844;-89
2022/07/30 12:07:24;;;;;;;5.35;2.45;;;22.90;99.90;;;;;;5014149;28;20193;-90
2022/07/30 12:09:49;;;;;;;3.30;2.83;;;23.00;99.90;;;;;;5033141;28;20181;-91
2022/07/30 12:12:23;;;;;;;5.25;3.60;;;23.10;99.90;;;;;;5016034;28;20223;-89
2022/07/30 12:14:49;;;;;;;5.80;2.65;;;23.20;99.90;;;;;;4999155;28;20181;-89
2022/07/30 12:17:14;;;;;;;3.45;2.58;;;23.30;99.90;;;;;;5015782;28;20195;-89
2022/07/30 12:19:47;;;;;;;3.83;2.50;;;23.50;99.90;;;;;;5033222;28;20533;-89
2022/07/30 12:22:13;;;;;;;3.03;2.17;;;23.60;99.90;;;;;;5033396;28;20211;-88
2022/07/30 12:24:38;;;;;;;2.63;2.33;;;23.70;99.90;;;;;;5033263;28;20188;-89
2022/07/30 12:27:06;;;;;;;5.78;3.33;;;23.80;99.90;;;;;;5033758;28;20180;-89
2022/07/30 12:29:33;;;;;;;6.88;3.08;;;23.90;99.90;;;;;;5036381;28;20187;-88
2022/07/30 12:31:59;;;;;;;3.42;2.75;;;24.00;99.90;;;;;;5039736;28;20242;-88
2022/07/30 12:34:25;;;;;;;3.80;2.83;;;24.10;99.90;;;;;;5022143;28;20270;-88
2022/07/30 12:36:52;;;;;;;3.83;2.97;;;24.20;99.90;;;;;;5039853;28;20702;-88
2022/07/30 12:39:23;;;;;;;3.80;2.25;;;24.40;99.90;;;;;;5040121;28;20199;-89
2022/07/30 12:41:52;;;;;;;5.28;3.25;;;24.40;99.90;;;;;;5039416;28;20192;-88
2022/07/30 12:44:39;;;;;;;4.63;2.63;;;24.50;99.90;;;;;;5022273;28;20560;-88
2022/07/30 12:47:16;;;;;;;3.97;2.40;;;24.40;99.90;;;;;;5039854;28;20176;-88
2022/07/30 12:49:42;;;;;;;5.05;2.58;;;24.40;99.90;;;;;;5022259;28;20232;-88
2022/07/30 12:52:08;;;;;;;2.20;1.90;;;24.30;99.90;;;;;;5023022;28;20196;-88
2022/07/30 12:54:33;;;;;;;4.88;2.30;;;24.30;99.90;;;;;;5022056;28;20527;-88
2022/07/30 12:57:01;;;;;;;3.50;2.75;;;24.30;99.90;;;;;;5021756;28;20184;-88